sensor_id;sensor_type;location;lat;lon;timestamp;P1;durP1;ratioP1;P2;durP2;ratioP2
25437;SDS011;13364;49.084;9.978;2022-10-23T00:01:36;6.68;;;2.95;;
25437;SDS011;13364;49.084;9.978;2022-10-23T00:04:13;4.00;;;2.85;;
25437;SDS011;13364;49.084;9.978;2022-10-23T00:06:44;3.58;;;3.03;;
25437;SDS011;13364;49.084;9.978;2022-10-23T00:09:14;5.43;;;3.17;;
25437;SDS011;13364;49.084;9.978;2022-10-23T00:11:43;7.93;;;2.97;;
25437;SDS011;13364;49.084;9.978;2022-10-23T00:14:14;8.70;;;3.67;;
25437;SDS011;13364;49.084;9.978;2022-10-23T00:16:42;5.85;;;3.72;;
25437;SDS011;13364;49.084;9.978;2022-10-23T00:19:10;5.97;;;3.28;;
25437;SDS011;13364;49.084;9.978;2022-10-23T00:21:37;5.00;;;3.33;;
25437;SDS011;13364;49.084;9.978;2022-10-23T00:24:05;9.20;;;3.80;;
25437;SDS011;13364;49.084;9.978;2022-10-23T00:26:34;6.15;;;3.67;;
25437;SDS011;13364;49.084;9.978;2022-10-23T00:29:17;5.68;;;3.42;;
25437;SDS011;13364;49.084;9.978;2022-10-23T00:31:46;4.75;;;3.47;;
25437;SDS011;13364;49.084;9.978;2022-10-23T00:34:15;5.75;;;3.72;;
25437;SDS011;13364;49.084;9.978;2022-10-23T00:36:42;5.20;;;3.65;;
25437;SDS011;13364;49.084;9.978;2022-10-23T00:39:09;4.78;;;4.00;;
25437;SDS011;13364;49.084;9.978;2022-10-23T00:41:36;5.80;;;3.60;;
25437;SDS011;13364;49.084;9.978;2022-10-23T00:45:06;4.85;;;4.00;;
25437;SDS011;13364;49.084;9.978;2022-10-23T00:46:57;7.03;;;3.58;;
25437;SDS011;13364;49.084;9.978;2022-10-23T00:49:25;5.97;;;3.67;;
25437;SDS011;13364;49.084;9.978;2022-10-23T00:51:58;9.25;;;4.00;;
25437;SDS011;13364;49.084;9.978;2022-10-23T00:54:29;6.60;;;3.63;;
25437;SDS011;13364;49.084;9.978;2022-10-23T00:56:59;9.10;;;3.58;;
25437;SDS011;13364;49.084;9.978;2022-10-23T00:59:28;3.92;;;3.28;;
25437;SDS011;13364;49.084;9.978;2022-10-23T01:01:57;5.25;;;3.65;;
25437;SDS011;13364;49.084;9.978;2022-10-23T01:04:25;6.20;;;3.50;;
25437;SDS011;13364;49.084;9.978;2022-10-23T01:06:58;6.15;;;3.78;;
25437;SDS011;13364;49.084;9.978;2022-10-23T01:10:14;7.20;;;3.80;;
25437;SDS011;13364;49.084;9.978;2022-10-23T01:18:57;6.47;;;4.43;;
25437;SDS011;13364;49.084;9.978;2022-10-23T01:21:34;7.35;;;4.43;;
25437;SDS011;13364;49.084;9.978;2022-10-23T01:38:15;10.18;;;4.65;;
25437;SDS011;13364;49.084;9.978;2022-10-23T01:43:19;11.48;;;5.10;;
25437;SDS011;13364;49.084;9.978;2022-10-23T01:45:57;8.23;;;5.00;;
25437;SDS011;13364;49.084;9.978;2022-10-23T01:48:28;5.30;;;4.72;;
25437;SDS011;13364;49.084;9.978;2022-10-23T01:50:59;6.75;;;4.80;;
25437;SDS011;13364;49.084;9.978;2022-10-23T01:53:30;8.27;;;5.07;;
25437;SDS011;13364;49.084;9.978;2022-10-23T01:56:05;8.32;;;4.70;;
25437;SDS011;13364;49.084;9.978;2022-10-23T01:58:35;7.50;;;5.55;;
25437;SDS011;13364;49.084;9.978;2022-10-23T02:01:05;6.23;;;3.97;;
25437;SDS011;13364;49.084;9.978;2022-10-23T02:03:44;9.18;;;5.50;;
25437;SDS011;13364;49.084;9.978;2022-10-23T02:06:13;8.13;;;5.13;;
25437;SDS011;13364;49.084;9.978;2022-10-23T02:08:41;7.82;;;5.28;;
25437;SDS011;13364;49.084;9.978;2022-10-23T02:11:15;9.60;;;5.25;;
25437;SDS011;13364;49.084;9.978;2022-10-23T02:21:37;5.50;;;4.53;;
25437;SDS011;13364;49.084;9.978;2022-10-23T02:24:34;5.05;;;4.55;;
25437;SDS011;13364;49.084;9.978;2022-10-23T02:27:14;7.80;;;4.88;;
25437;SDS011;13364;49.084;9.978;2022-10-23T02:29:52;8.07;;;4.80;;
25437;SDS011;13364;49.084;9.978;2022-10-23T02:32:22;7.72;;;4.90;;
25437;SDS011;13364;49.084;9.978;2022-10-23T02:34:52;9.50;;;4.55;;
25437;SDS011;13364;49.084;9.978;2022-10-23T02:44:42;7.00;;;4.60;;
25437;SDS011;13364;49.084;9.978;2022-10-23T02:47:25;7.43;;;4.57;;
25437;SDS011;13364;49.084;9.978;2022-10-23T02:59:12;6.97;;;4.18;;
25437;SDS011;13364;49.084;9.978;2022-10-23T03:01:57;4.47;;;3.72;;
25437;SDS011;13364;49.084;9.978;2022-10-23T03:04:36;6.25;;;4.30;;
25437;SDS011;13364;49.084;9.978;2022-10-23T03:07:14;9.10;;;4.15;;
25437;SDS011;13364;49.084;9.978;2022-10-23T03:09:43;8.35;;;4.38;;
25437;SDS011;13364;49.084;9.978;2022-10-23T03:12:12;7.22;;;3.88;;
25437;SDS011;13364;49.084;9.978;2022-10-23T03:14:39;10.48;;;3.92;;
25437;SDS011;13364;49.084;9.978;2022-10-23T03:17:06;6.15;;;3.95;;
25437;SDS011;13364;49.084;9.978;2022-10-23T03:19:33;6.03;;;3.80;;
25437;SDS011;13364;49.084;9.978;2022-10-23T03:22:02;6.97;;;3.47;;
25437;SDS011;13364;49.084;9.978;2022-10-23T03:24:29;5.88;;;3.78;;
25437;SDS011;13364;49.084;9.978;2022-10-23T03:26:56;9.38;;;3.97;;
25437;SDS011;13364;49.084;9.978;2022-10-23T03:29:29;6.05;;;3.70;;
25437;SDS011;13364;49.084;9.978;2022-10-23T03:31:56;5.50;;;3.97;;
25437;SDS011;13364;49.084;9.978;2022-10-23T03:34:24;5.03;;;3.65;;
25437;SDS011;13364;49.084;9.978;2022-10-23T03:36:52;6.55;;;3.90;;
25437;SDS011;13364;49.084;9.978;2022-10-23T03:39:19;5.85;;;3.72;;
25437;SDS011;13364;49.084;9.978;2022-10-23T03:41:47;5.20;;;3.42;;
25437;SDS011;13364;49.084;9.978;2022-10-23T03:44:15;6.03;;;3.28;;
25437;SDS011;13364;49.084;9.978;2022-10-23T03:46:43;7.13;;;3.42;;
25437;SDS011;13364;49.084;9.978;2022-10-23T03:49:11;10.43;;;3.83;;
25437;SDS011;13364;49.084;9.978;2022-10-23T03:51:41;4.28;;;3.00;;
25437;SDS011;13364;49.084;9.978;2022-10-23T03:54:10;3.90;;;2.80;;
25437;SDS011;13364;49.084;9.978;2022-10-23T03:56:37;4.63;;;2.83;;
25437;SDS011;13364;49.084;9.978;2022-10-23T03:59:06;3.85;;;3.08;;
25437;SDS011;13364;49.084;9.978;2022-10-23T04:01:33;3.53;;;3.05;;
25437;SDS011;13364;49.084;9.978;2022-10-23T04:04:00;7.53;;;3.13;;
25437;SDS011;13364;49.084;9.978;2022-10-23T04:06:28;4.50;;;3.15;;
25437;SDS011;13364;49.084;9.978;2022-10-23T04:08:56;6.55;;;2.58;;
25437;SDS011;13364;49.084;9.978;2022-10-23T04:11:23;4.13;;;2.97;;
25437;SDS011;13364;49.084;9.978;2022-10-23T04:13:50;5.20;;;2.80;;
25437;SDS011;13364;49.084;9.978;2022-10-23T04:16:18;5.13;;;2.88;;
25437;SDS011;13364;49.084;9.978;2022-10-23T04:18:45;8.15;;;2.80;;
25437;SDS011;13364;49.084;9.978;2022-10-23T04:21:12;6.47;;;2.83;;
25437;SDS011;13364;49.084;9.978;2022-10-23T04:23:39;5.65;;;3.50;;
25437;SDS011;13364;49.084;9.978;2022-10-23T04:26:16;4.45;;;2.90;;
25437;SDS011;13364;49.084;9.978;2022-10-23T04:28:43;6.80;;;2.85;;
25437;SDS011;13364;49.084;9.978;2022-10-23T04:31:10;3.20;;;2.40;;
25437;SDS011;13364;49.084;9.978;2022-10-23T04:33:40;5.88;;;3.10;;
25437;SDS011;13364;49.084;9.978;2022-10-23T04:36:07;4.55;;;2.67;;
25437;SDS011;13364;49.084;9.978;2022-10-23T04:38:35;4.68;;;2.85;;
25437;SDS011;13364;49.084;9.978;2022-10-23T04:41:04;4.82;;;2.65;;
25437;SDS011;13364;49.084;9.978;2022-10-23T04:43:32;3.90;;;2.80;;
25437;SDS011;13364;49.084;9.978;2022-10-23T04:46:01;3.15;;;2.40;;
25437;SDS011;13364;49.084;9.978;2022-10-23T04:48:28;4.78;;;2.33;;
25437;SDS011;13364;49.084;9.978;2022-10-23T04:51:22;4.55;;;1.90;;
25437;SDS011;13364;49.084;9.978;2022-10-23T04:54:05;8.05;;;2.92;;
25437;SDS011;13364;49.084;9.978;2022-10-23T04:56:58;4.78;;;2.42;;
25437;SDS011;13364;49.084;9.978;2022-10-23T04:59:32;4.60;;;2.28;;
25437;SDS011;13364;49.084;9.978;2022-10-23T05:01:59;5.65;;;2.30;;
25437;SDS011;13364;49.084;9.978;2022-10-23T05:04:27;3.25;;;2.13;;
25437;SDS011;13364;49.084;9.978;2022-10-23T05:07:13;3.33;;;1.95;;
25437;SDS011;13364;49.084;9.978;2022-10-23T05:10:03;3.28;;;1.80;;
25437;SDS011;13364;49.084;9.978;2022-10-23T05:12:54;4.05;;;2.00;;
25437;SDS011;13364;49.084;9.978;2022-10-23T05:15:21;3.22;;;2.08;;
25437;SDS011;13364;49.084;9.978;2022-10-23T05:17:49;3.85;;;2.13;;
25437;SDS011;13364;49.084;9.978;2022-10-23T05:20:20;3.22;;;2.15;;
25437;SDS011;13364;49.084;9.978;2022-10-23T05:22:51;3.33;;;2.08;;
25437;SDS011;13364;49.084;9.978;2022-10-23T05:25:22;4.28;;;1.92;;
25437;SDS011;13364;49.084;9.978;2022-10-23T05:27:58;2.75;;;1.80;;
25437;SDS011;13364;49.084;9.978;2022-10-23T05:30:25;2.42;;;1.60;;
25437;SDS011;13364;49.084;9.978;2022-10-23T05:32:53;4.47;;;1.70;;
25437;SDS011;13364;49.084;9.978;2022-10-23T05:35:23;2.53;;;2.15;;
25437;SDS011;13364;49.084;9.978;2022-10-23T05:37:51;5.57;;;1.73;;
25437;SDS011;13364;49.084;9.978;2022-10-23T05:40:22;4.45;;;1.88;;
25437;SDS011;13364;49.084;9.978;2022-10-23T05:42:56;2.58;;;1.77;;
25437;SDS011;13364;49.084;9.978;2022-10-23T05:45:41;7.60;;;1.88;;
25437;SDS011;13364;49.084;9.978;2022-10-23T05:48:38;3.90;;;1.60;;
25437;SDS011;13364;49.084;9.978;2022-10-23T05:51:17;2.03;;;1.75;;
25437;SDS011;13364;49.084;9.978;2022-10-23T05:58:12;2.88;;;1.80;;
25437;SDS011;13364;49.084;9.978;2022-10-23T06:01:09;3.22;;;2.20;;
25437;SDS011;13364;49.084;9.978;2022-10-23T06:04:00;2.50;;;2.30;;
25437;SDS011;13364;49.084;9.978;2022-10-23T06:06:47;1.77;;;1.60;;
25437;SDS011;13364;49.084;9.978;2022-10-23T06:09:15;7.75;;;2.78;;
25437;SDS011;13364;49.084;9.978;2022-10-23T06:11:42;23.70;;;9.50;;
25437;SDS011;13364;49.084;9.978;2022-10-23T06:14:15;16.90;;;6.72;;
25437;SDS011;13364;49.084;9.978;2022-10-23T06:16:43;8.43;;;3.15;;
25437;SDS011;13364;49.084;9.978;2022-10-23T06:19:10;2.20;;;1.88;;
25437;SDS011;13364;49.084;9.978;2022-10-23T06:21:40;2.08;;;1.58;;
25437;SDS011;13364;49.084;9.978;2022-10-23T06:24:09;3.63;;;2.00;;
25437;SDS011;13364;49.084;9.978;2022-10-23T06:26:45;1.83;;;1.55;;
25437;SDS011;13364;49.084;9.978;2022-10-23T06:29:35;6.45;;;1.92;;
25437;SDS011;13364;49.084;9.978;2022-10-23T06:32:02;3.53;;;1.77;;
25437;SDS011;13364;49.084;9.978;2022-10-23T06:34:29;4.20;;;1.77;;
25437;SDS011;13364;49.084;9.978;2022-10-23T06:36:56;4.50;;;1.88;;
25437;SDS011;13364;49.084;9.978;2022-10-23T06:39:41;3.35;;;1.95;;
25437;SDS011;13364;49.084;9.978;2022-10-23T06:42:08;4.35;;;1.92;;
25437;SDS011;13364;49.084;9.978;2022-10-23T06:44:53;2.70;;;2.00;;
25437;SDS011;13364;49.084;9.978;2022-10-23T06:47:36;2.70;;;1.88;;
25437;SDS011;13364;49.084;9.978;2022-10-23T06:50:22;2.55;;;1.75;;
25437;SDS011;13364;49.084;9.978;2022-10-23T06:52:51;2.85;;;1.80;;
25437;SDS011;13364;49.084;9.978;2022-10-23T06:55:20;5.65;;;2.20;;
25437;SDS011;13364;49.084;9.978;2022-10-23T06:57:47;2.38;;;1.98;;
25437;SDS011;13364;49.084;9.978;2022-10-23T07:00:15;3.72;;;1.90;;
25437;SDS011;13364;49.084;9.978;2022-10-23T07:02:48;5.30;;;2.20;;
25437;SDS011;13364;49.084;9.978;2022-10-23T07:05:15;5.15;;;1.85;;
25437;SDS011;13364;49.084;9.978;2022-10-23T07:07:43;3.20;;;1.90;;
25437;SDS011;13364;49.084;9.978;2022-10-23T07:10:14;4.00;;;2.00;;
25437;SDS011;13364;49.084;9.978;2022-10-23T07:12:44;3.40;;;1.88;;
25437;SDS011;13364;49.084;9.978;2022-10-23T07:15:33;4.47;;;2.30;;
25437;SDS011;13364;49.084;9.978;2022-10-23T07:18:01;4.68;;;2.80;;
25437;SDS011;13364;49.084;9.978;2022-10-23T07:20:42;5.05;;;1.75;;
25437;SDS011;13364;49.084;9.978;2022-10-23T07:23:10;3.70;;;1.80;;
25437;SDS011;13364;49.084;9.978;2022-10-23T07:25:38;2.35;;;2.10;;
25437;SDS011;13364;49.084;9.978;2022-10-23T07:28:06;3.15;;;1.83;;
25437;SDS011;13364;49.084;9.978;2022-10-23T07:30:34;3.58;;;2.47;;
25437;SDS011;13364;49.084;9.978;2022-10-23T07:33:02;5.47;;;2.53;;
25437;SDS011;13364;49.084;9.978;2022-10-23T07:38:24;3.55;;;2.55;;
25437;SDS011;13364;49.084;9.978;2022-10-23T07:40:55;5.13;;;2.00;;
25437;SDS011;13364;49.084;9.978;2022-10-23T07:43:23;4.07;;;2.10;;
25437;SDS011;13364;49.084;9.978;2022-10-23T07:45:51;4.53;;;2.03;;
25437;SDS011;13364;49.084;9.978;2022-10-23T07:48:28;4.85;;;2.25;;
25437;SDS011;13364;49.084;9.978;2022-10-23T07:50:58;5.68;;;1.85;;
25437;SDS011;13364;49.084;9.978;2022-10-23T07:53:27;4.40;;;2.22;;
25437;SDS011;13364;49.084;9.978;2022-10-23T07:56:00;5.53;;;2.33;;
25437;SDS011;13364;49.084;9.978;2022-10-23T07:58:49;2.70;;;1.80;;
25437;SDS011;13364;49.084;9.978;2022-10-23T08:01:24;4.50;;;1.88;;
25437;SDS011;13364;49.084;9.978;2022-10-23T08:04:03;4.32;;;1.85;;
25437;SDS011;13364;49.084;9.978;2022-10-23T08:06:33;4.38;;;2.17;;
25437;SDS011;13364;49.084;9.978;2022-10-23T08:09:03;3.00;;;1.88;;
25437;SDS011;13364;49.084;9.978;2022-10-23T08:11:35;3.05;;;2.00;;
25437;SDS011;13364;49.084;9.978;2022-10-23T08:16:45;5.22;;;1.80;;
25437;SDS011;13364;49.084;9.978;2022-10-23T08:21:43;4.15;;;2.03;;
25437;SDS011;13364;49.084;9.978;2022-10-23T08:24:11;3.22;;;1.58;;
25437;SDS011;13364;49.084;9.978;2022-10-23T08:26:41;3.13;;;1.73;;
25437;SDS011;13364;49.084;9.978;2022-10-23T08:29:10;3.58;;;1.70;;
25437;SDS011;13364;49.084;9.978;2022-10-23T08:31:37;3.53;;;1.50;;
25437;SDS011;13364;49.084;9.978;2022-10-23T08:34:21;2.15;;;1.85;;
25437;SDS011;13364;49.084;9.978;2022-10-23T08:36:50;2.58;;;1.60;;
25437;SDS011;13364;49.084;9.978;2022-10-23T08:39:17;3.45;;;1.77;;
25437;SDS011;13364;49.084;9.978;2022-10-23T08:42:05;5.72;;;1.60;;
25437;SDS011;13364;49.084;9.978;2022-10-23T08:44:34;4.00;;;1.48;;
25437;SDS011;13364;49.084;9.978;2022-10-23T08:47:38;2.33;;;1.60;;
25437;SDS011;13364;49.084;9.978;2022-10-23T08:50:38;4.75;;;1.92;;
25437;SDS011;13364;49.084;9.978;2022-10-23T08:53:45;1.92;;;1.50;;
25437;SDS011;13364;49.084;9.978;2022-10-23T08:58:51;5.85;;;1.63;;
25437;SDS011;13364;49.084;9.978;2022-10-23T09:04:08;1.98;;;1.45;;
25437;SDS011;13364;49.084;9.978;2022-10-23T09:12:09;4.53;;;1.70;;
25437;SDS011;13364;49.084;9.978;2022-10-23T09:17:43;2.25;;;1.60;;
25437;SDS011;13364;49.084;9.978;2022-10-23T09:20:54;1.45;;;1.35;;
25437;SDS011;13364;49.084;9.978;2022-10-23T09:23:13;2.45;;;1.50;;
25437;SDS011;13364;49.084;9.978;2022-10-23T09:25:43;1.20;;;1.10;;
25437;SDS011;13364;49.084;9.978;2022-10-23T09:28:18;4.00;;;1.70;;
25437;SDS011;13364;49.084;9.978;2022-10-23T09:30:53;4.13;;;1.58;;
25437;SDS011;13364;49.084;9.978;2022-10-23T09:33:32;3.78;;;1.50;;
25437;SDS011;13364;49.084;9.978;2022-10-23T09:36:03;1.50;;;1.27;;
25437;SDS011;13364;49.084;9.978;2022-10-23T09:46:49;2.72;;;1.30;;
25437;SDS011;13364;49.084;9.978;2022-10-23T09:49:26;5.07;;;1.67;;
25437;SDS011;13364;49.084;9.978;2022-10-23T09:52:02;1.83;;;1.33;;
25437;SDS011;13364;49.084;9.978;2022-10-23T09:54:35;2.45;;;1.15;;
25437;SDS011;13364;49.084;9.978;2022-10-23T09:57:05;3.08;;;1.42;;
25437;SDS011;13364;49.084;9.978;2022-10-23T09:59:56;1.23;;;1.10;;
25437;SDS011;13364;49.084;9.978;2022-10-23T10:02:36;3.33;;;1.13;;
25437;SDS011;13364;49.084;9.978;2022-10-23T10:05:26;1.38;;;1.25;;
25437;SDS011;13364;49.084;9.978;2022-10-23T10:08:09;1.20;;;1.10;;
25437;SDS011;13364;49.084;9.978;2022-10-23T10:10:53;2.58;;;1.23;;
25437;SDS011;13364;49.084;9.978;2022-10-23T10:13:37;2.45;;;1.95;;
25437;SDS011;13364;49.084;9.978;2022-10-23T10:19:00;3.67;;;1.92;;
25437;SDS011;13364;49.084;9.978;2022-10-23T10:30:19;16.00;;;5.93;;
25437;SDS011;13364;49.084;9.978;2022-10-23T10:35:22;27.98;;;9.85;;
25437;SDS011;13364;49.084;9.978;2022-10-23T10:40:32;56.28;;;33.67;;
25437;SDS011;13364;49.084;9.978;2022-10-23T10:48:39;4.40;;;1.50;;
25437;SDS011;13364;49.084;9.978;2022-10-23T10:51:39;9.57;;;1.80;;
25437;SDS011;13364;49.084;9.978;2022-10-23T10:56:59;4.50;;;1.30;;
25437;SDS011;13364;49.084;9.978;2022-10-23T10:59:34;2.78;;;1.20;;
25437;SDS011;13364;49.084;9.978;2022-10-23T11:05:01;2.97;;;1.20;;
25437;SDS011;13364;49.084;9.978;2022-10-23T11:07:52;3.83;;;1.30;;
25437;SDS011;13364;49.084;9.978;2022-10-23T11:10:25;2.83;;;1.00;;
25437;SDS011;13364;49.084;9.978;2022-10-23T11:12:54;2.97;;;1.53;;
25437;SDS011;13364;49.084;9.978;2022-10-23T11:22:36;1.63;;;1.20;;
25437;SDS011;13364;49.084;9.978;2022-10-23T11:28:27;1.67;;;1.10;;
25437;SDS011;13364;49.084;9.978;2022-10-23T11:39:18;1.40;;;1.20;;
25437;SDS011;13364;49.084;9.978;2022-10-23T11:41:49;2.65;;;0.93;;
25437;SDS011;13364;49.084;9.978;2022-10-23T11:52:38;1.10;;;1.00;;
25437;SDS011;13364;49.084;9.978;2022-10-23T11:55:37;2.28;;;1.17;;
25437;SDS011;13364;49.084;9.978;2022-10-23T12:00:48;2.45;;;1.40;;
25437;SDS011;13364;49.084;9.978;2022-10-23T12:03:45;1.33;;;1.00;;
25437;SDS011;13364;49.084;9.978;2022-10-23T12:06:31;5.03;;;1.20;;
25437;SDS011;13364;49.084;9.978;2022-10-23T12:12:29;2.35;;;1.00;;
25437;SDS011;13364;49.084;9.978;2022-10-23T12:18:09;1.42;;;1.00;;
25437;SDS011;13364;49.084;9.978;2022-10-23T12:23:29;2.33;;;1.20;;
25437;SDS011;13364;49.084;9.978;2022-10-23T12:28:49;3.58;;;1.27;;
25437;SDS011;13364;49.084;9.978;2022-10-23T12:31:45;2.58;;;0.88;;
25437;SDS011;13364;49.084;9.978;2022-10-23T12:40:51;1.65;;;1.15;;
25437;SDS011;13364;49.084;9.978;2022-10-23T12:43:25;2.28;;;1.10;;
25437;SDS011;13364;49.084;9.978;2022-10-23T12:45:55;2.28;;;0.90;;
25437;SDS011;13364;49.084;9.978;2022-10-23T12:48:50;3.67;;;1.42;;
25437;SDS011;13364;49.084;9.978;2022-10-23T12:51:27;10.45;;;3.17;;
25437;SDS011;13364;49.084;9.978;2022-10-23T12:53:55;5.93;;;2.72;;
25437;SDS011;13364;49.084;9.978;2022-10-23T12:56:26;15.60;;;5.03;;
25437;SDS011;13364;49.084;9.978;2022-10-23T12:59:00;32.95;;;10.07;;
25437;SDS011;13364;49.084;9.978;2022-10-23T13:01:30;24.80;;;7.97;;
25437;SDS011;13364;49.084;9.978;2022-10-23T13:06:50;5.93;;;1.70;;
25437;SDS011;13364;49.084;9.978;2022-10-23T13:09:21;3.17;;;1.10;;
25437;SDS011;13364;49.084;9.978;2022-10-23T13:12:08;1.63;;;0.98;;
25437;SDS011;13364;49.084;9.978;2022-10-23T13:22:13;2.67;;;1.10;;
25437;SDS011;13364;49.084;9.978;2022-10-23T13:24:46;4.13;;;1.20;;
25437;SDS011;13364;49.084;9.978;2022-10-23T13:27:47;1.20;;;1.10;;
25437;SDS011;13364;49.084;9.978;2022-10-23T13:30:26;2.55;;;1.30;;
25437;SDS011;13364;49.084;9.978;2022-10-23T13:32:54;3.10;;;0.80;;
25437;SDS011;13364;49.084;9.978;2022-10-23T13:35:22;2.80;;;1.00;;
25437;SDS011;13364;49.084;9.978;2022-10-23T13:37:49;2.97;;;0.98;;
25437;SDS011;13364;49.084;9.978;2022-10-23T13:42:49;3.05;;;1.05;;
25437;SDS011;13364;49.084;9.978;2022-10-23T13:47:47;2.27;;;1.33;;
25437;SDS011;13364;49.084;9.978;2022-10-23T13:50:15;1.23;;;1.10;;
25437;SDS011;13364;49.084;9.978;2022-10-23T13:52:42;2.92;;;1.25;;
25437;SDS011;13364;49.084;9.978;2022-10-23T13:57:48;2.10;;;1.45;;
25437;SDS011;13364;49.084;9.978;2022-10-23T14:00:15;1.85;;;1.30;;
25437;SDS011;13364;49.084;9.978;2022-10-23T14:02:44;1.70;;;1.40;;
25437;SDS011;13364;49.084;9.978;2022-10-23T14:05:11;3.20;;;1.08;;
25437;SDS011;13364;49.084;9.978;2022-10-23T14:07:38;3.03;;;0.93;;
25437;SDS011;13364;49.084;9.978;2022-10-23T14:10:05;3.10;;;1.52;;
25437;SDS011;13364;49.084;9.978;2022-10-23T14:12:39;2.00;;;1.35;;
25437;SDS011;13364;49.084;9.978;2022-10-23T14:15:08;3.47;;;1.27;;
25437;SDS011;13364;49.084;9.978;2022-10-23T14:17:36;2.40;;;1.60;;
25437;SDS011;13364;49.084;9.978;2022-10-23T14:20:03;4.85;;;1.67;;
25437;SDS011;13364;49.084;9.978;2022-10-23T14:22:31;2.35;;;1.20;;
25437;SDS011;13364;49.084;9.978;2022-10-23T14:24:58;1.30;;;1.20;;
25437;SDS011;13364;49.084;9.978;2022-10-23T14:27:25;3.22;;;1.50;;
25437;SDS011;13364;49.084;9.978;2022-10-23T14:29:52;4.97;;;1.40;;
25437;SDS011;13364;49.084;9.978;2022-10-23T14:32:19;2.80;;;1.40;;
25437;SDS011;13364;49.084;9.978;2022-10-23T14:34:51;4.45;;;1.30;;
25437;SDS011;13364;49.084;9.978;2022-10-23T14:37:19;3.03;;;1.40;;
25437;SDS011;13364;49.084;9.978;2022-10-23T14:39:47;4.40;;;1.35;;
25437;SDS011;13364;49.084;9.978;2022-10-23T14:42:15;2.50;;;1.40;;
25437;SDS011;13364;49.084;9.978;2022-10-23T14:44:43;2.30;;;1.55;;
25437;SDS011;13364;49.084;9.978;2022-10-23T14:47:10;4.35;;;1.42;;
25437;SDS011;13364;49.084;9.978;2022-10-23T14:49:37;3.53;;;1.40;;
25437;SDS011;13364;49.084;9.978;2022-10-23T14:52:05;3.08;;;1.42;;
25437;SDS011;13364;49.084;9.978;2022-10-23T14:54:33;2.67;;;1.13;;
25437;SDS011;13364;49.084;9.978;2022-10-23T14:57:02;1.90;;;1.52;;
25437;SDS011;13364;49.084;9.978;2022-10-23T14:59:29;2.08;;;1.33;;
25437;SDS011;13364;49.084;9.978;2022-10-23T15:06:15;2.70;;;1.48;;
25437;SDS011;13364;49.084;9.978;2022-10-23T15:08:43;3.25;;;1.38;;
25437;SDS011;13364;49.084;9.978;2022-10-23T15:11:10;1.75;;;1.20;;
25437;SDS011;13364;49.084;9.978;2022-10-23T15:13:38;4.47;;;1.67;;
25437;SDS011;13364;49.084;9.978;2022-10-23T15:16:06;4.13;;;1.55;;
25437;SDS011;13364;49.084;9.978;2022-10-23T15:21:21;60.97;;;19.17;;
25437;SDS011;13364;49.084;9.978;2022-10-23T15:23:49;44.78;;;14.73;;
25437;SDS011;13364;49.084;9.978;2022-10-23T15:26:18;13.95;;;3.50;;
25437;SDS011;13364;49.084;9.978;2022-10-23T15:28:52;11.23;;;4.03;;
25437;SDS011;13364;49.084;9.978;2022-10-23T15:34:09;42.75;;;13.32;;
25437;SDS011;13364;49.084;9.978;2022-10-23T15:36:39;50.30;;;16.38;;
25437;SDS011;13364;49.084;9.978;2022-10-23T15:39:08;30.33;;;10.05;;
25437;SDS011;13364;49.084;9.978;2022-10-23T15:41:38;22.17;;;7.30;;
25437;SDS011;13364;49.084;9.978;2022-10-23T15:44:06;6.78;;;2.65;;
25437;SDS011;13364;49.084;9.978;2022-10-23T15:46:34;4.38;;;2.47;;
25437;SDS011;13364;49.084;9.978;2022-10-23T15:49:01;3.72;;;2.20;;
25437;SDS011;13364;49.084;9.978;2022-10-23T15:51:29;3.35;;;1.95;;
25437;SDS011;13364;49.084;9.978;2022-10-23T15:53:57;6.03;;;1.95;;
25437;SDS011;13364;49.084;9.978;2022-10-23T15:56:25;4.82;;;2.00;;
25437;SDS011;13364;49.084;9.978;2022-10-23T15:58:52;3.53;;;1.90;;
25437;SDS011;13364;49.084;9.978;2022-10-23T16:01:19;3.88;;;1.73;;
25437;SDS011;13364;49.084;9.978;2022-10-23T16:03:46;4.85;;;1.80;;
25437;SDS011;13364;49.084;9.978;2022-10-23T16:06:13;5.57;;;2.60;;
25437;SDS011;13364;49.084;9.978;2022-10-23T16:08:42;6.88;;;1.90;;
25437;SDS011;13364;49.084;9.978;2022-10-23T16:11:14;6.18;;;2.28;;
25437;SDS011;13364;49.084;9.978;2022-10-23T16:13:44;5.95;;;2.92;;
25437;SDS011;13364;49.084;9.978;2022-10-23T16:16:11;12.35;;;4.00;;
25437;SDS011;13364;49.084;9.978;2022-10-23T16:18:39;17.38;;;6.22;;
25437;SDS011;13364;49.084;9.978;2022-10-23T16:21:06;27.42;;;8.70;;
25437;SDS011;13364;49.084;9.978;2022-10-23T16:23:33;24.67;;;7.40;;
25437;SDS011;13364;49.084;9.978;2022-10-23T16:26:02;23.88;;;7.18;;
25437;SDS011;13364;49.084;9.978;2022-10-23T16:32:56;15.10;;;3.83;;
25437;SDS011;13364;49.084;9.978;2022-10-23T16:35:23;6.68;;;2.40;;
25437;SDS011;13364;49.084;9.978;2022-10-23T16:38:02;7.53;;;2.05;;
25437;SDS011;13364;49.084;9.978;2022-10-23T16:40:30;4.90;;;2.08;;
25437;SDS011;13364;49.084;9.978;2022-10-23T16:43:15;4.78;;;2.17;;
25437;SDS011;13364;49.084;9.978;2022-10-23T16:48:38;3.08;;;2.58;;
25437;SDS011;13364;49.084;9.978;2022-10-23T16:51:07;4.20;;;2.20;;
25437;SDS011;13364;49.084;9.978;2022-10-23T16:53:36;8.23;;;2.38;;
25437;SDS011;13364;49.084;9.978;2022-10-23T16:56:17;7.30;;;2.97;;
25437;SDS011;13364;49.084;9.978;2022-10-23T16:58:47;5.90;;;2.17;;
25437;SDS011;13364;49.084;9.978;2022-10-23T17:01:18;4.10;;;2.42;;
25437;SDS011;13364;49.084;9.978;2022-10-23T17:03:48;5.65;;;2.30;;
25437;SDS011;13364;49.084;9.978;2022-10-23T17:06:18;3.43;;;2.47;;
25437;SDS011;13364;49.084;9.978;2022-10-23T17:11:18;3.63;;;2.55;;
25437;SDS011;13364;49.084;9.978;2022-10-23T17:13:49;3.35;;;2.55;;
25437;SDS011;13364;49.084;9.978;2022-10-23T17:19:20;5.60;;;2.10;;
25437;SDS011;13364;49.084;9.978;2022-10-23T17:26:22;3.88;;;2.30;;
25437;SDS011;13364;49.084;9.978;2022-10-23T17:31:46;5.53;;;3.13;;
25437;SDS011;13364;49.084;9.978;2022-10-23T17:34:16;5.63;;;2.90;;
25437;SDS011;13364;49.084;9.978;2022-10-23T17:36:47;5.10;;;2.50;;
25437;SDS011;13364;49.084;9.978;2022-10-23T17:39:16;4.68;;;2.90;;
25437;SDS011;13364;49.084;9.978;2022-10-23T17:41:46;7.75;;;3.75;;
25437;SDS011;13364;49.084;9.978;2022-10-23T17:44:14;5.55;;;2.90;;
25437;SDS011;13364;49.084;9.978;2022-10-23T17:46:41;3.67;;;2.70;;
25437;SDS011;13364;49.084;9.978;2022-10-23T17:49:08;3.30;;;2.00;;
25437;SDS011;13364;49.084;9.978;2022-10-23T17:54:30;6.53;;;2.20;;
25437;SDS011;13364;49.084;9.978;2022-10-23T17:56:57;3.80;;;2.45;;
25437;SDS011;13364;49.084;9.978;2022-10-23T17:59:24;4.35;;;2.35;;
25437;SDS011;13364;49.084;9.978;2022-10-23T18:01:51;13.10;;;2.78;;
25437;SDS011;13364;49.084;9.978;2022-10-23T18:04:19;5.13;;;2.08;;
25437;SDS011;13364;49.084;9.978;2022-10-23T18:06:48;6.40;;;2.65;;
25437;SDS011;13364;49.084;9.978;2022-10-23T18:09:18;5.38;;;2.60;;
25437;SDS011;13364;49.084;9.978;2022-10-23T18:11:46;3.40;;;2.10;;
25437;SDS011;13364;49.084;9.978;2022-10-23T18:14:17;5.55;;;2.08;;
25437;SDS011;13364;49.084;9.978;2022-10-23T18:16:45;4.30;;;2.35;;
25437;SDS011;13364;49.084;9.978;2022-10-23T18:19:13;5.95;;;2.10;;
25437;SDS011;13364;49.084;9.978;2022-10-23T18:21:41;4.47;;;2.15;;
25437;SDS011;13364;49.084;9.978;2022-10-23T18:24:08;2.65;;;1.92;;
25437;SDS011;13364;49.084;9.978;2022-10-23T18:26:35;8.10;;;2.13;;
25437;SDS011;13364;49.084;9.978;2022-10-23T18:29:05;6.60;;;2.20;;
25437;SDS011;13364;49.084;9.978;2022-10-23T18:31:33;6.10;;;2.13;;
25437;SDS011;13364;49.084;9.978;2022-10-23T18:36:37;5.10;;;2.42;;
25437;SDS011;13364;49.084;9.978;2022-10-23T18:39:07;10.82;;;2.22;;
25437;SDS011;13364;49.084;9.978;2022-10-23T18:41:37;4.53;;;2.42;;
25437;SDS011;13364;49.084;9.978;2022-10-23T18:44:06;6.53;;;2.53;;
25437;SDS011;13364;49.084;9.978;2022-10-23T18:46:34;9.15;;;3.78;;
25437;SDS011;13364;49.084;9.978;2022-10-23T18:49:02;3.90;;;1.90;;